Time;durP1;ratioP1;P1;durP2;ratioP2;P2;SDS_P1;SDS_P2;PMS_P1;PMS_P2;Temp;Humidity;BMP_temperature;BMP_pressure;BME280_temperature;BME280_humidity;BME280_pressure;Samples;Min_cycle;Max_cycle;Signal;HPM_P1;HPM_P2
2021/11/11 00:02:23;;;;;;;36.00;28.00;;;1.50;99.90;;;;;;5033098;28;20480;-65
2021/11/11 00:04:51;;;;;;;42.23;30.10;;;1.30;99.90;;;;;;5033507;28;20481;-66
2021/11/11 00:07:17;;;;;;;40.00;29.10;;;1.30;99.90;;;;;;5032929;28;20460;-64
2021/11/11 00:09:44;;;;;;;45.27;29.90;;;1.30;99.90;;;;;;5033916;28;20444;-64
2021/11/11 00:12:11;;;;;;;35.60;27.70;;;1.30;99.90;;;;;;5032866;28;20966;-65
2021/11/11 00:14:38;;;;;;;40.80;27.13;;;1.30;99.90;;;;;;5033518;28;20520;-65
2021/11/11 00:17:06;;;;;;;40.93;29.40;;;1.30;99.90;;;;;;5032246;28;20464;-66
2021/11/11 00:19:33;;;;;;;40.17;26.83;;;1.30;99.90;;;;;;5033562;28;20455;-65
2021/11/11 00:22:00;;;;;;;39.43;28.70;;;1.30;99.90;;;;;;5033425;28;20488;-65
2021/11/11 00:24:27;;;;;;;41.07;27.33;;;1.30;99.90;;;;;;5033465;28;20441;-65
2021/11/11 00:26:54;;;;;;;38.23;27.60;;;1.30;99.90;;;;;;5032444;28;20483;-65
2021/11/11 00:29:20;;;;;;;39.13;28.90;;;1.30;99.90;;;;;;5033015;28;20450;-64
2021/11/11 00:31:47;;;;;;;35.57;27.73;;;1.20;99.90;;;;;;5032724;28;20437;-66
2021/11/11 00:34:15;;;;;;;38.07;28.60;;;1.20;99.90;;;;;;5032961;28;20451;-65
2021/11/11 00:36:42;;;;;;;41.83;30.50;;;1.10;99.90;;;;;;5032145;28;20464;-65
2021/11/11 00:39:09;;;;;;;38.10;29.50;;;1.20;99.90;;;;;;5032784;28;20489;-64
2021/11/11 00:41:36;;;;;;;36.80;27.80;;;1.20;99.90;;;;;;5032492;28;20475;-65
2021/11/11 00:44:03;;;;;;;40.67;29.17;;;1.20;99.90;;;;;;5032559;28;20452;-65
2021/11/11 00:46:30;;;;;;;38.23;27.63;;;1.20;99.90;;;;;;5031949;28;20468;-65
2021/11/11 00:48:57;;;;;;;42.57;28.50;;;1.20;99.90;;;;;;5032626;28;20445;-65
2021/11/11 00:51:25;;;;;;;40.43;30.00;;;1.20;99.90;;;;;;5032162;28;20440;-65
2021/11/11 00:53:52;;;;;;;39.50;28.80;;;1.20;99.90;;;;;;5032614;28;20437;-65
2021/11/11 00:56:19;;;;;;;34.60;26.20;;;1.20;99.90;;;;;;5031450;28;20465;-64
2021/11/11 00:58:45;;;;;;;43.23;28.50;;;1.20;99.90;;;;;;5031123;28;21133;-64
2021/11/11 01:01:12;;;;;;;38.13;27.17;;;1.20;99.90;;;;;;5031939;28;20508;-64
2021/11/11 01:03:41;;;;;;;51.03;31.67;;;1.30;99.90;;;;;;5032416;28;20481;-65
2021/11/11 01:06:08;;;;;;;63.00;33.67;;;1.20;99.90;;;;;;5032106;28;20842;-64
2021/11/11 01:08:37;;;;;;;64.33;33.77;;;1.10;99.90;;;;;;5031618;28;20452;-65
2021/11/11 01:11:05;;;;;;;60.17;34.15;;;1.10;99.90;;;;;;5032058;28;20452;-65
2021/11/11 01:13:33;;;;;;;40.50;27.83;;;1.10;99.90;;;;;;5032290;28;20222;-64
2021/11/11 01:16:00;;;;;;;44.50;29.80;;;1.00;99.90;;;;;;5031966;28;20475;-64
2021/11/11 01:18:27;;;;;;;37.30;28.17;;;1.00;99.90;;;;;;5031259;28;21029;-65
2021/11/11 01:20:53;;;;;;;39.43;27.70;;;1.00;99.90;;;;;;5031983;28;20213;-65
2021/11/11 01:23:20;;;;;;;37.60;26.53;;;1.00;99.90;;;;;;5031617;28;20476;-65
2021/11/11 01:25:48;;;;;;;44.40;28.10;;;1.00;99.90;;;;;;5031983;28;20468;-64
2021/11/11 01:28:15;;;;;;;40.00;29.37;;;1.00;99.90;;;;;;5031208;28;20459;-65
2021/11/11 01:30:44;;;;;;;42.87;28.60;;;0.90;99.90;;;;;;5031950;28;20499;-64
2021/11/11 01:33:11;;;;;;;37.97;28.10;;;0.90;99.90;;;;;;5031356;28;20453;-65
2021/11/11 01:35:38;;;;;;;42.70;29.70;;;0.80;99.90;;;;;;5031672;28;20468;-66
2021/11/11 01:38:05;;;;;;;39.53;27.20;;;0.80;99.90;;;;;;5030664;28;21055;-64
2021/11/11 01:40:32;;;;;;;36.50;26.23;;;0.80;99.90;;;;;;5031519;28;20571;-65
2021/11/11 01:43:03;;;;;;;35.77;27.80;;;0.80;99.90;;;;;;5031274;28;20517;-64
2021/11/11 01:45:32;;;;;;;46.00;29.90;;;0.80;99.90;;;;;;5031520;28;20467;-64
2021/11/11 01:48:00;;;;;;;56.97;34.40;;;0.80;99.90;;;;;;5030570;28;20673;-64
2021/11/11 01:50:27;;;;;;;50.50;30.17;;;0.70;99.90;;;;;;5031501;28;20451;-64
2021/11/11 01:52:55;;;;;;;55.13;28.27;;;0.70;99.90;;;;;;5030883;28;20205;-64
2021/11/11 01:55:22;;;;;;;92.50;31.90;;;0.70;99.90;;;;;;5031657;28;20461;-65
2021/11/11 01:57:50;;;;;;;50.57;29.23;;;0.80;99.90;;;;;;5030819;28;20445;-64
2021/11/11 02:00:22;;;;;;;48.40;28.80;;;0.80;99.90;;;;;;5031395;28;20520;-65
2021/11/11 02:02:54;;;;;;;67.97;31.27;;;0.90;99.90;;;;;;5031247;28;20853;-65
2021/11/11 02:05:21;;;;;;;58.80;32.53;;;0.90;99.90;;;;;;5031066;28;20468;-65
2021/11/11 02:07:49;;;;;;;45.03;28.13;;;0.80;99.90;;;;;;5039270;28;20447;-65
2021/11/11 02:10:16;;;;;;;57.43;31.07;;;0.80;99.90;;;;;;5050562;28;20448;-64
2021/11/11 02:12:44;;;;;;;72.50;32.90;;;0.80;99.90;;;;;;5050587;28;20447;-65
2021/11/11 02:15:11;;;;;;;65.83;31.00;;;0.80;99.90;;;;;;5050669;28;20448;-65
2021/11/11 02:17:40;;;;;;;72.23;31.10;;;0.70;99.90;;;;;;5049978;28;20444;-65
2021/11/11 02:20:12;;;;;;;57.97;30.30;;;0.70;99.90;;;;;;5051224;28;20505;-64
2021/11/11 02:22:39;;;;;;;45.03;26.70;;;0.60;99.90;;;;;;5050690;28;20570;-65
2021/11/11 02:25:09;;;;;;;67.87;32.10;;;0.60;99.90;;;;;;5050940;28;20451;-65
2021/11/11 02:27:36;;;;;;;56.83;31.30;;;0.60;99.90;;;;;;5050183;28;20459;-65
2021/11/11 02:30:04;;;;;;;47.37;28.20;;;0.60;99.90;;;;;;5050461;28;20475;-65
2021/11/11 02:32:32;;;;;;;54.13;33.90;;;0.70;99.90;;;;;;5050486;28;20837;-65
2021/11/11 02:34:59;;;;;;;42.17;27.70;;;0.80;99.90;;;;;;5051025;28;20444;-63
2021/11/11 02:37:29;;;;;;;42.97;29.77;;;0.80;99.90;;;;;;5049891;28;20452;-65
2021/11/11 02:39:57;;;;;;;42.03;29.50;;;0.80;99.90;;;;;;5051266;28;20452;-64
2021/11/11 02:42:24;;;;;;;41.03;28.30;;;0.80;99.90;;;;;;5050446;28;20458;-65
2021/11/11 02:44:51;;;;;;;46.37;29.40;;;0.90;99.90;;;;;;5050743;28;20445;-65
2021/11/11 02:47:18;;;;;;;40.60;28.00;;;1.00;99.90;;;;;;5049692;28;20500;-65
2021/11/11 02:49:45;;;;;;;42.50;27.67;;;0.90;99.90;;;;;;5050750;28;20509;-65
2021/11/11 02:52:11;;;;;;;39.67;27.70;;;0.80;99.90;;;;;;5049871;28;21121;-65
2021/11/11 02:54:40;;;;;;;44.60;28.33;;;0.80;99.90;;;;;;5050648;28;20451;-63
2021/11/11 02:57:20;;;;;;;37.93;26.87;;;0.80;99.90;;;;;;5049420;28;20848;-65
2021/11/11 02:59:47;;;;;;;42.50;27.43;;;0.70;99.90;;;;;;5050130;28;20991;-65
2021/11/11 03:02:21;;;;;;;39.80;26.93;;;0.70;99.90;;;;;;5049937;28;20443;-65
2021/11/11 03:04:48;;;;;;;38.03;28.63;;;0.80;99.90;;;;;;5050651;28;20474;-65
2021/11/11 03:07:15;;;;;;;43.03;28.77;;;0.80;99.90;;;;;;5049246;28;20535;-66
2021/11/11 03:09:44;;;;;;;46.13;27.80;;;0.90;99.90;;;;;;5050227;28;20444;-65
2021/11/11 03:12:11;;;;;;;35.30;26.23;;;0.90;99.90;;;;;;5049704;28;20942;-65
2021/11/11 03:14:39;;;;;;;34.63;27.20;;;1.00;99.90;;;;;;5049796;28;20459;-65
2021/11/11 03:17:07;;;;;;;40.83;28.27;;;1.00;99.90;;;;;;5049319;28;20859;-66
2021/11/11 03:19:34;;;;;;;40.90;28.20;;;0.90;99.90;;;;;;5050225;28;20452;-66
2021/11/11 03:22:04;;;;;;;38.87;25.97;;;0.80;99.90;;;;;;5048880;28;20447;-64
2021/11/11 03:24:31;;;;;;;33.80;27.50;;;0.80;99.90;;;;;;5049558;28;20491;-65
2021/11/11 03:26:59;;;;;;;37.80;24.80;;;0.80;99.90;;;;;;5049250;28;20483;-65
2021/11/11 03:29:26;;;;;;;33.87;23.60;;;0.90;99.90;;;;;;5049607;28;20444;-65
2021/11/11 03:31:53;;;;;;;37.43;25.93;;;0.80;99.90;;;;;;5049673;28;20448;-65
2021/11/11 03:34:23;;;;;;;33.33;24.23;;;0.70;99.90;;;;;;5049765;28;20446;-65
2021/11/11 03:36:49;;;;;;;35.23;23.80;;;0.70;99.90;;;;;;5048809;28;20464;-64
2021/11/11 03:39:17;;;;;;;30.83;22.77;;;0.70;99.90;;;;;;5049583;28;20455;-65
2021/11/11 03:41:44;;;;;;;37.37;25.00;;;0.80;99.90;;;;;;5049491;28;20452;-65
2021/11/11 03:44:15;;;;;;;32.47;23.37;;;0.70;99.90;;;;;;5049726;28;20487;-64
2021/11/11 03:46:42;;;;;;;33.50;24.10;;;0.70;99.90;;;;;;5048619;28;20525;-65
2021/11/11 03:49:09;;;;;;;39.43;24.93;;;0.70;99.90;;;;;;5049837;28;20993;-65
2021/11/11 03:51:36;;;;;;;35.67;26.60;;;0.70;99.90;;;;;;5048940;28;20456;-65
2021/11/11 03:54:05;;;;;;;34.15;23.35;;;0.60;99.90;;;;;;5049859;28;20442;-65
2021/11/11 03:56:32;;;;;;;35.30;25.00;;;0.70;99.90;;;;;;5048803;28;20213;-65
2021/11/11 03:58:59;;;;;;;32.30;23.13;;;0.60;99.90;;;;;;5049609;28;20950;-65
2021/11/11 04:01:27;;;;;;;37.57;24.47;;;0.70;99.90;;;;;;5049073;28;20459;-65
2021/11/11 04:03:54;;;;;;;46.43;25.73;;;0.80;99.90;;;;;;5049488;28;20484;-65
2021/11/11 04:06:21;;;;;;;39.87;24.97;;;0.90;99.90;;;;;;5048707;28;20463;-66
2021/11/11 04:08:48;;;;;;;47.13;26.38;;;0.90;99.90;;;;;;5049511;28;20444;-66
2021/11/11 04:11:14;;;;;;;43.70;25.20;;;0.90;99.90;;;;;;5049313;28;20201;-64
2021/11/11 04:13:42;;;;;;;59.80;27.10;;;1.00;99.90;;;;;;5049421;28;20535;-66
2021/11/11 04:16:09;;;;;;;52.87;26.90;;;0.90;99.90;;;;;;5049266;28;20989;-63
2021/11/11 04:18:37;;;;;;;70.97;29.03;;;0.90;99.90;;;;;;5048463;28;20448;-65
2021/11/11 04:21:04;;;;;;;76.60;28.43;;;0.90;99.90;;;;;;5049517;28;20448;-66
2021/11/11 04:23:31;;;;;;;57.57;27.40;;;1.00;99.90;;;;;;5049137;28;20532;-65
2021/11/11 04:26:03;;;;;;;30.70;23.80;;;1.10;99.90;;;;;;5049216;28;20468;-66
2021/11/11 04:28:32;;;;;;;51.93;26.93;;;1.10;99.90;;;;;;5048503;28;20559;-66
2021/11/11 04:31:02;;;;;;;49.00;25.17;;;1.10;99.90;;;;;;5049423;28;20456;-66
2021/11/11 04:33:29;;;;;;;47.65;22.60;;;1.10;99.90;;;;;;5050694;28;20446;-65
2021/11/11 04:36:00;;;;;;;29.60;21.00;;;1.10;99.90;;;;;;5053109;28;20235;-65
2021/11/11 04:38:34;;;;;;;49.30;23.52;;;1.10;99.90;;;;;;5051840;28;20858;-65
2021/11/11 04:41:24;;;;;;;42.87;23.00;;;1.20;99.90;;;;;;5053065;28;20228;-65
2021/11/11 04:43:56;;;;;;;36.60;21.50;;;1.20;99.90;;;;;;5052565;28;20494;-66
2021/11/11 04:49:21;;;;;;;76.77;25.43;;;1.20;99.90;;;;;;5052959;28;20448;-65
2021/11/11 04:52:04;;;;;;;67.37;25.27;;;1.20;99.90;;;;;;5052536;28;20450;-66
2021/11/11 05:00:16;;;;;;;69.37;26.37;;;1.00;99.90;;;;;;5052553;28;20831;-65
2021/11/11 05:02:57;;;;;;;83.03;28.00;;;1.10;99.90;;;;;;5052540;28;20497;-63
2021/11/11 05:05:24;;;;;;;89.00;26.63;;;1.00;99.90;;;;;;5052339;28;20456;-64
2021/11/11 05:07:53;;;;;;;82.00;25.20;;;1.00;99.90;;;;;;5051773;28;20452;-65
2021/11/11 05:10:21;;;;;;;57.00;25.10;;;1.10;99.90;;;;;;5052276;28;20448;-67
2021/11/11 05:12:48;;;;;;;75.27;24.00;;;1.10;99.90;;;;;;5051871;28;20969;-65
2021/11/11 05:15:15;;;;;;;195.93;32.60;;;1.10;99.90;;;;;;5052093;28;20436;-65
2021/11/11 05:17:45;;;;;;;66.00;24.10;;;1.20;99.90;;;;;;5051473;28;20972;-65
2021/11/11 05:20:12;;;;;;;59.00;25.60;;;1.20;99.90;;;;;;5052272;28;20517;-64
2021/11/11 05:22:39;;;;;;;74.70;26.77;;;1.20;99.90;;;;;;5052084;28;20462;-65
2021/11/11 05:25:08;;;;;;;39.13;22.03;;;1.20;99.90;;;;;;5052240;28;20225;-64
2021/11/11 05:27:36;;;;;;;72.67;24.67;;;1.30;99.90;;;;;;5051427;28;20801;-65
2021/11/11 05:30:04;;;;;;;49.07;23.77;;;1.30;99.90;;;;;;5052328;28;20448;-65
2021/11/11 05:32:31;;;;;;;95.03;26.13;;;1.30;99.90;;;;;;5051611;28;20505;-66
2021/11/11 05:34:58;;;;;;;36.60;22.30;;;1.30;99.90;;;;;;5052013;28;20803;-68
2021/11/11 05:37:25;;;;;;;50.50;24.37;;;1.30;99.90;;;;;;5050723;28;20260;-65
2021/11/11 05:39:51;;;;;;;41.67;21.47;;;1.30;99.90;;;;;;5051627;28;20448;-66
2021/11/11 05:42:20;;;;;;;42.93;23.93;;;1.20;99.90;;;;;;5051433;28;20445;-65
2021/11/11 05:44:47;;;;;;;42.77;24.03;;;1.30;99.90;;;;;;5051172;28;20579;-65
2021/11/11 05:47:14;;;;;;;43.23;22.87;;;1.30;99.90;;;;;;5050698;28;20464;-65
2021/11/11 05:49:41;;;;;;;32.67;21.40;;;1.30;99.90;;;;;;5051535;28;20452;-65
2021/11/11 05:52:08;;;;;;;40.20;23.67;;;1.30;99.90;;;;;;5051186;28;20448;-66
2021/11/11 05:54:37;;;;;;;43.53;23.93;;;1.40;99.90;;;;;;5050552;28;20964;-64
2021/11/11 05:57:04;;;;;;;37.63;22.63;;;1.40;99.90;;;;;;5050678;28;20876;-65
2021/11/11 05:59:33;;;;;;;29.05;21.10;;;1.40;99.90;;;;;;5051233;28;20454;-65
2021/11/11 06:02:00;;;;;;;50.30;23.20;;;1.40;99.90;;;;;;5050896;28;20278;-61
2021/11/11 06:04:28;;;;;;;46.63;25.47;;;1.20;99.90;;;;;;5046599;28;21143;-63
2021/11/11 06:06:54;;;;;;;52.17;26.27;;;1.20;99.90;;;;;;5037223;28;20487;-66
2021/11/11 06:09:21;;;;;;;44.00;22.17;;;1.10;99.90;;;;;;5048672;28;20533;-64
2021/11/11 06:11:48;;;;;;;36.40;23.37;;;1.00;99.90;;;;;;5050314;28;20460;-65
2021/11/11 06:14:15;;;;;;;37.03;24.20;;;1.10;99.90;;;;;;5050548;28;20446;-65
2021/11/11 06:16:43;;;;;;;61.57;23.80;;;1.00;99.90;;;;;;5048949;28;20467;-65
2021/11/11 06:19:10;;;;;;;46.10;24.30;;;1.10;99.90;;;;;;5049859;28;20446;-66
2021/11/11 06:21:38;;;;;;;31.80;20.00;;;1.00;99.90;;;;;;5047456;28;20505;-64
2021/11/11 06:24:05;;;;;;;48.00;24.00;;;1.00;99.90;;;;;;5048386;28;20487;-66
2021/11/11 06:26:34;;;;;;;62.13;23.70;;;1.00;99.90;;;;;;5047469;28;20479;-66
2021/11/11 06:29:02;;;;;;;31.90;20.23;;;1.10;99.90;;;;;;5049523;28;20467;-64
2021/11/11 06:31:29;;;;;;;36.72;21.73;;;1.10;99.90;;;;;;5048700;28;20466;-65
2021/11/11 06:33:58;;;;;;;45.57;23.60;;;1.10;99.90;;;;;;5049835;28;20197;-63
2021/11/11 06:36:25;;;;;;;35.57;22.73;;;1.20;99.90;;;;;;5049636;28;20535;-66
2021/11/11 06:38:52;;;;;;;80.90;27.58;;;1.30;99.90;;;;;;5050307;28;20448;-66
2021/11/11 06:41:19;;;;;;;46.03;25.90;;;1.40;99.90;;;;;;5049751;28;20201;-65
2021/11/11 06:43:47;;;;;;;38.67;24.17;;;1.50;99.90;;;;;;5050194;28;20480;-68
2021/11/11 06:46:14;;;;;;;46.90;23.80;;;1.50;99.90;;;;;;5049798;28;20472;-64
2021/11/11 06:48:42;;;;;;;26.10;19.73;;;1.60;99.90;;;;;;5049715;28;20535;-65
2021/11/11 06:51:10;;;;;;;28.77;22.23;;;1.70;99.90;;;;;;5048283;28;20505;-65
2021/11/11 06:53:37;;;;;;;30.63;23.67;;;1.70;99.90;;;;;;5050163;28;20440;-65
2021/11/11 06:56:04;;;;;;;33.07;23.87;;;1.80;99.90;;;;;;5048888;28;20832;-65
2021/11/11 06:58:31;;;;;;;29.43;21.20;;;1.80;99.90;;;;;;5048880;28;20444;-63
2021/11/11 07:01:00;;;;;;;39.87;22.40;;;1.90;99.90;;;;;;5049512;28;20455;-64
2021/11/11 07:03:29;;;;;;;35.60;20.30;;;1.90;99.90;;;;;;5040354;28;20455;-63
2021/11/11 07:05:56;;;;;;;33.87;21.67;;;1.90;99.90;;;;;;5048562;28;20742;-65
2021/11/11 07:08:24;;;;;;;33.43;21.97;;;2.00;99.90;;;;;;5048370;28;20448;-65
2021/11/11 07:10:55;;;;;;;57.93;25.60;;;2.10;99.90;;;;;;5049138;28;20480;-65
2021/11/11 07:13:23;;;;;;;34.53;22.80;;;2.10;99.90;;;;;;5048694;28;20847;-65
2021/11/11 07:15:50;;;;;;;28.90;21.57;;;2.10;99.90;;;;;;5048708;28;20499;-65
2021/11/11 07:18:17;;;;;;;51.63;24.30;;;2.10;99.90;;;;;;5048137;28;20489;-66
2021/11/11 07:20:46;;;;;;;75.20;25.17;;;2.00;99.90;;;;;;5048469;28;20832;-65
2021/11/11 07:23:14;;;;;;;34.97;19.77;;;2.00;99.90;;;;;;5048059;28;21020;-65
2021/11/11 07:25:42;;;;;;;61.13;22.20;;;2.00;99.90;;;;;;5048359;28;20483;-64
2021/11/11 07:28:09;;;;;;;30.13;20.40;;;2.00;99.90;;;;;;5047755;28;20444;-66
2021/11/11 07:30:37;;;;;;;68.43;24.23;;;2.10;99.90;;;;;;5048606;28;20551;-65
2021/11/11 07:33:04;;;;;;;111.30;27.47;;;2.00;99.90;;;;;;5048407;28;20737;-65
2021/11/11 07:35:32;;;;;;;46.60;20.83;;;1.90;99.90;;;;;;5048727;28;20466;-65
2021/11/11 07:37:59;;;;;;;102.20;26.20;;;1.90;99.90;;;;;;5047874;28;20903;-65
2021/11/11 07:40:27;;;;;;;30.90;22.47;;;1.70;99.90;;;;;;5048448;28;20463;-65
2021/11/11 07:42:55;;;;;;;62.17;24.43;;;1.80;99.90;;;;;;5048539;28;20853;-65
2021/11/11 07:45:25;;;;;;;190.67;35.37;;;1.80;99.90;;;;;;5048497;28;20480;-64
2021/11/11 07:47:54;;;;;;;192.93;43.17;;;1.90;99.90;;;;;;5047978;28;20448;-66
2021/11/11 07:50:24;;;;;;;169.00;45.13;;;1.90;99.90;;;;;;5048715;28;20893;-66
2021/11/11 07:52:51;;;;;;;94.03;38.87;;;1.80;99.90;;;;;;5047873;28;20450;-65
2021/11/11 07:55:18;;;;;;;222.93;37.17;;;2.00;99.90;;;;;;5048296;28;21016;-65
2021/11/11 07:57:46;;;;;;;155.57;32.00;;;1.90;99.90;;;;;;5047898;28;20444;-64
2021/11/11 08:00:16;;;;;;;133.57;31.47;;;1.80;99.90;;;;;;5048715;28;20456;-64
2021/11/11 08:02:43;;;;;;;119.30;32.90;;;1.90;99.90;;;;;;5048413;28;20459;-64
2021/11/11 08:05:13;;;;;;;148.37;34.03;;;1.90;99.90;;;;;;5048584;28;20931;-64
2021/11/11 08:07:42;;;;;;;163.30;40.27;;;2.00;99.90;;;;;;5048612;28;20448;-65
2021/11/11 08:10:09;;;;;;;152.00;37.37;;;2.10;99.90;;;;;;5053020;28;20820;-65
2021/11/11 08:12:36;;;;;;;81.40;31.30;;;2.00;99.90;;;;;;5051936;28;20827;-64
2021/11/11 08:15:04;;;;;;;101.97;32.60;;;1.90;99.90;;;;;;5052197;28;20444;-64
2021/11/11 08:17:32;;;;;;;69.93;30.07;;;2.00;99.90;;;;;;5051402;28;20456;-65
2021/11/11 08:19:59;;;;;;;69.50;31.70;;;2.10;99.90;;;;;;5052057;28;20828;-64
2021/11/11 08:22:28;;;;;;;120.47;32.67;;;2.20;99.90;;;;;;5051287;28;20503;-64
2021/11/11 08:24:56;;;;;;;74.33;30.57;;;2.20;99.90;;;;;;5052052;28;20483;-63
2021/11/11 08:27:24;;;;;;;132.07;30.33;;;2.40;99.90;;;;;;5051293;28;20463;-63
2021/11/11 08:29:51;;;;;;;40.20;22.13;;;2.50;99.90;;;;;;5051992;28;20456;-64
2021/11/11 08:32:19;;;;;;;103.93;26.27;;;2.60;99.90;;;;;;5051547;28;20439;-65
2021/11/11 08:34:48;;;;;;;56.13;24.23;;;2.80;99.90;;;;;;5051721;28;20206;-65
2021/11/11 08:37:16;;;;;;;54.80;23.20;;;2.90;99.90;;;;;;5050774;28;20467;-64
2021/11/11 08:39:43;;;;;;;102.72;24.52;;;3.00;99.90;;;;;;5051321;28;20244;-64
2021/11/11 08:42:11;;;;;;;69.97;24.27;;;3.00;99.90;;;;;;5051147;28;20208;-64
2021/11/11 08:44:38;;;;;;;40.77;20.70;;;3.10;99.90;;;;;;5051466;28;20471;-64
2021/11/11 08:47:05;;;;;;;30.75;20.33;;;3.10;99.90;;;;;;5051028;28;21044;-64
2021/11/11 08:49:32;;;;;;;44.00;20.27;;;3.30;99.90;;;;;;5051335;28;20258;-64
2021/11/11 08:52:01;;;;;;;34.70;20.50;;;3.40;99.90;;;;;;5051242;28;20543;-64
2021/11/11 08:54:27;;;;;;;34.20;20.17;;;3.60;99.90;;;;;;5051711;28;20522;-60
2021/11/11 08:56:55;;;;;;;23.80;19.40;;;3.60;99.90;;;;;;5050683;28;20464;-64
2021/11/11 08:59:24;;;;;;;25.87;20.77;;;3.70;99.90;;;;;;5051057;28;20447;-64
2021/11/11 09:01:53;;;;;;;33.15;20.95;;;3.80;99.90;;;;;;5050769;28;20448;-65
2021/11/11 09:04:21;;;;;;;29.13;19.90;;;4.00;99.90;;;;;;5051135;28;20209;-63
2021/11/11 09:06:49;;;;;;;25.83;20.57;;;3.90;99.90;;;;;;5050388;28;20482;-63
2021/11/11 09:09:17;;;;;;;29.90;19.47;;;4.00;99.90;;;;;;5051048;28;20444;-65
2021/11/11 09:11:44;;;;;;;27.60;21.60;;;4.00;99.90;;;;;;5050636;28;20945;-64
2021/11/11 09:14:11;;;;;;;23.53;20.63;;;4.00;99.90;;;;;;5051300;28;20455;-65
2021/11/11 09:16:38;;;;;;;25.70;21.27;;;4.10;99.90;;;;;;5043889;28;20480;-65
2021/11/11 09:19:06;;;;;;;31.13;25.20;;;4.30;99.90;;;;;;5048471;28;20440;-64
2021/11/11 09:21:33;;;;;;;36.20;27.80;;;4.40;99.90;;;;;;5031437;28;20445;-64
2021/11/11 09:24:00;;;;;;;44.53;33.10;;;4.50;99.90;;;;;;5031896;28;20441;-66
2021/11/11 09:26:28;;;;;;;46.60;31.97;;;4.60;99.90;;;;;;5031376;28;20935;-64
2021/11/11 09:28:55;;;;;;;43.08;30.63;;;4.60;99.90;;;;;;5031625;28;20476;-63
2021/11/11 09:31:24;;;;;;;31.20;26.37;;;4.70;99.90;;;;;;5031393;28;20264;-66
2021/11/11 09:33:51;;;;;;;29.30;22.90;;;4.90;99.90;;;;;;5032178;28;20786;-65
2021/11/11 09:36:19;;;;;;;26.80;23.60;;;4.90;99.90;;;;;;5030970;28;20461;-60
2021/11/11 09:38:47;;;;;;;27.60;23.17;;;5.20;99.90;;;;;;5031628;28;20454;-62
2021/11/11 09:41:15;;;;;;;27.07;22.13;;;5.30;99.90;;;;;;5030994;28;20841;-64
2021/11/11 09:43:43;;;;;;;27.63;20.90;;;5.40;99.90;;;;;;5031452;28;20475;-64
2021/11/11 09:46:13;;;;;;;26.07;21.80;;;5.50;99.90;;;;;;5031106;28;21028;-64
2021/11/11 09:48:41;;;;;;;23.73;21.13;;;5.50;99.90;;;;;;5031367;28;20444;-64
2021/11/11 09:51:12;;;;;;;27.70;21.30;;;5.60;99.90;;;;;;5031224;28;20452;-63
2021/11/11 09:53:50;;;;;;;26.60;21.60;;;5.80;99.90;;;;;;5031784;28;20452;-64
2021/11/11 09:59:02;;;;;;;25.97;21.67;;;6.00;99.90;;;;;;5031159;28;20806;-61
2021/11/11 10:01:29;;;;;;;28.90;21.87;;;6.20;99.90;;;;;;5030679;28;20831;-63
2021/11/11 10:03:57;;;;;;;26.07;22.30;;;6.40;99.90;;;;;;5031048;28;20460;-64
2021/11/11 10:06:25;;;;;;;28.03;23.30;;;6.20;99.90;;;;;;5030076;28;20493;-64
2021/11/11 10:08:55;;;;;;;29.57;21.20;;;6.10;99.90;;;;;;5031578;28;20452;-64
2021/11/11 10:11:32;;;;;;;23.97;21.43;;;6.40;99.90;;;;;;5030638;28;20452;-65
2021/11/11 10:14:06;;;;;;;26.40;22.63;;;6.50;99.90;;;;;;5029853;28;20451;-64
2021/11/11 10:16:36;;;;;;;27.00;22.47;;;6.50;99.90;;;;;;5030256;28;20460;-64
2021/11/11 10:19:05;;;;;;;31.00;21.73;;;6.60;99.90;;;;;;5030874;28;20445;-66
2021/11/11 10:21:41;;;;;;;26.40;21.70;;;6.70;99.90;;;;;;5030491;28;21065;-64
2021/11/11 10:24:28;;;;;;;26.07;23.23;;;6.60;99.90;;;;;;5030892;28;20456;-64
2021/11/11 10:27:02;;;;;;;25.43;22.10;;;6.80;99.90;;;;;;5029998;28;20452;-64
2021/11/11 10:29:36;;;;;;;27.27;22.77;;;6.90;99.90;;;;;;5030778;28;20453;-63
2021/11/11 10:32:09;;;;;;;27.20;22.70;;;6.80;99.90;;;;;;5030119;28;20441;-65
2021/11/11 10:34:45;;;;;;;25.73;21.77;;;6.90;99.90;;;;;;5030740;28;20448;-65
2021/11/11 10:37:12;;;;;;;27.20;23.63;;;6.90;99.90;;;;;;5029949;28;20468;-63
2021/11/11 10:39:41;;;;;;;24.70;20.67;;;7.10;99.90;;;;;;5030594;28;20943;-65
2021/11/11 10:42:16;;;;;;;26.30;23.43;;;7.20;99.90;;;;;;5030189;28;20453;-64
2021/11/11 10:44:48;;;;;;;24.17;21.47;;;7.20;99.90;;;;;;5030351;28;20444;-65
2021/11/11 10:47:20;;;;;;;26.77;22.73;;;7.30;99.90;;;;;;5029988;28;20474;-65
2021/11/11 10:49:47;;;;;;;25.10;22.40;;;7.40;99.90;;;;;;5030796;28;20455;-64
2021/11/11 10:52:30;;;;;;;29.07;22.73;;;7.60;99.90;;;;;;5030277;28;20206;-65
2021/11/11 10:55:16;;;;;;;25.83;21.40;;;8.10;99.90;;;;;;5030335;28;20445;-64
2021/11/11 10:57:47;;;;;;;26.13;22.93;;;8.60;99.90;;;;;;5028545;28;20472;-64
2021/11/11 11:00:29;;;;;;;24.67;21.63;;;8.40;99.90;;;;;;5030320;28;20841;-65
2021/11/11 11:03:01;;;;;;;24.92;22.25;;;8.30;99.90;;;;;;5029940;28;20449;-66
2021/11/11 11:05:31;;;;;;;27.47;23.67;;;8.30;99.90;;;;;;5029938;28;20226;-65
2021/11/11 11:08:00;;;;;;;26.47;23.57;;;8.00;99.90;;;;;;5029308;28;20556;-64
2021/11/11 11:10:27;;;;;;;26.83;23.37;;;7.60;99.90;;;;;;5030128;28;20511;-65
2021/11/11 11:12:55;;;;;;;28.25;23.35;;;6.90;99.90;;;;;;5029790;28;20476;-65
2021/11/11 11:15:48;;;;;;;30.00;23.10;;;6.80;99.90;;;;;;5029984;28;20221;-65
2021/11/11 11:18:17;;;;;;;30.20;23.48;;;6.40;99.90;;;;;;5029188;28;20209;-64
2021/11/11 11:20:44;;;;;;;27.67;21.53;;;6.20;99.90;;;;;;5030011;28;20590;-62
2021/11/11 11:23:15;;;;;;;31.60;24.20;;;5.90;99.90;;;;;;5029639;28;20457;-65
2021/11/11 11:25:54;;;;;;;33.83;26.90;;;5.70;99.90;;;;;;5029781;28;20484;-62
2021/11/11 11:28:34;;;;;;;28.67;25.43;;;5.80;99.90;;;;;;5029043;28;20445;-66
2021/11/11 11:31:04;;;;;;;31.13;25.10;;;6.10;99.90;;;;;;5030356;28;20453;-65
2021/11/11 11:33:40;;;;;;;28.27;24.27;;;6.40;99.90;;;;;;5029837;28;20876;-65
2021/11/11 11:36:08;;;;;;;26.17;22.20;;;6.70;99.90;;;;;;5029577;28;20461;-65
2021/11/11 11:38:40;;;;;;;26.87;22.73;;;7.00;99.90;;;;;;5029163;28;20461;-65
2021/11/11 11:41:25;;;;;;;28.60;23.07;;;7.20;99.90;;;;;;5029566;28;21029;-65
2021/11/11 11:43:53;;;;;;;29.77;22.70;;;7.20;99.90;;;;;;5032876;28;20445;-65
2021/11/11 11:46:24;;;;;;;27.37;20.20;;;7.30;99.90;;;;;;5032603;28;20566;-61
2021/11/11 11:48:52;;;;;;;24.17;21.63;;;7.40;99.90;;;;;;5033425;28;20499;-64
2021/11/11 11:51:23;;;;;;;24.40;21.53;;;7.30;99.90;;;;;;5033073;28;20502;-66
2021/11/11 11:53:52;;;;;;;30.23;22.67;;;7.40;99.90;;;;;;5033831;28;20445;-62
2021/11/11 11:56:24;;;;;;;25.43;21.30;;;7.40;99.90;;;;;;5032750;28;20461;-63
2021/11/11 11:58:59;;;;;;;22.13;19.70;;;7.40;99.90;;;;;;5033659;28;20464;-62
2021/11/11 12:01:36;;;;;;;26.27;20.37;;;7.30;99.90;;;;;;5032950;28;20300;-63
2021/11/11 12:04:16;;;;;;;24.47;20.17;;;7.30;99.90;;;;;;5033591;28;20448;-63
2021/11/11 12:06:54;;;;;;;23.57;20.07;;;7.30;99.90;;;;;;5032536;28;20858;-62
2021/11/11 12:09:29;;;;;;;23.77;19.30;;;7.20;99.90;;;;;;5033287;28;20506;-62
2021/11/11 12:12:22;;;;;;;23.80;20.10;;;7.20;99.90;;;;;;5032846;28;20804;-61
2021/11/11 12:15:07;;;;;;;22.05;18.83;;;7.20;99.90;;;;;;5033444;28;20627;-64
2021/11/11 12:17:49;;;;;;;26.00;20.77;;;7.10;99.90;;;;;;5032405;28;20624;-64
2021/11/11 12:29:29;;;;;;;24.30;21.63;;;6.90;99.90;;;;;;5032914;28;20229;-60
2021/11/11 12:40:25;;;;;;;24.77;19.90;;;6.80;99.90;;;;;;5032763;28;20424;-64
2021/11/11 12:42:55;;;;;;;27.93;22.73;;;6.80;99.90;;;;;;5032400;28;20441;-65
2021/11/11 12:45:24;;;;;;;25.43;21.00;;;6.80;99.90;;;;;;5032556;28;20464;-66
2021/11/11 12:47:54;;;;;;;27.90;22.00;;;6.80;99.90;;;;;;5032004;28;20452;-63
2021/11/11 12:50:48;;;;;;;26.47;22.20;;;6.90;99.90;;;;;;5032725;28;20459;-63
2021/11/11 12:53:42;;;;;;;28.40;22.40;;;6.70;99.90;;;;;;5032133;28;20437;-63
2021/11/11 12:56:27;;;;;;;26.35;21.52;;;6.80;99.90;;;;;;5032865;28;20542;-63
2021/11/11 12:59:12;;;;;;;26.50;23.33;;;6.80;99.90;;;;;;5049313;28;20190;-63
2021/11/11 13:01:51;;;;;;;26.20;22.07;;;6.70;99.90;;;;;;5049177;28;20976;-63
2021/11/11 13:04:19;;;;;;;32.40;24.50;;;6.60;99.90;;;;;;5050700;28;20945;-62
2021/11/11 13:06:49;;;;;;;30.30;24.40;;;6.60;99.90;;;;;;5050104;28;20485;-63
2021/11/11 13:09:27;;;;;;;30.77;22.87;;;6.40;99.90;;;;;;5049005;28;20444;-64
2021/11/11 13:11:56;;;;;;;27.47;24.40;;;6.20;99.90;;;;;;5046580;28;20877;-65
2021/11/11 13:14:25;;;;;;;28.93;23.93;;;6.10;99.90;;;;;;5051811;28;20448;-65
2021/11/11 13:17:13;;;;;;;30.50;23.70;;;6.20;99.90;;;;;;5050912;28;20466;-65